createdAt,value
2018-08-12T00:00:01.552Z,15.1
2018-08-12T00:00:51.915Z,15.1
2018-08-12T00:01:42.236Z,15
2018-08-12T00:02:32.061Z,15
2018-08-12T00:03:21.790Z,15
2018-08-12T00:04:12.199Z,15
2018-08-12T00:05:01.944Z,14.9
2018-08-12T00:05:52.583Z,14.9
2018-08-12T00:06:42.340Z,14.9
2018-08-12T00:07:32.132Z,14.9
2018-08-12T00:08:22.752Z,14.9
2018-08-12T00:09:12.866Z,14.9
2018-08-12T00:10:17.526Z,15.1
2018-08-12T00:10:52.652Z,15.1
2018-08-12T00:11:42.993Z,15.2
2018-08-12T00:12:32.787Z,15.1
2018-08-12T00:13:23.104Z,15
2018-08-12T00:14:12.647Z,15.1
2018-08-12T00:15:03.326Z,15.1
2018-08-12T00:15:53.351Z,15.1
2018-08-12T00:16:42.881Z,15.1
2018-08-12T00:17:33.456Z,15.1
2018-08-12T00:18:23.016Z,15
2018-08-12T00:37:16.534Z,14.2
2018-08-12T00:38:06.600Z,14.1
2018-08-12T00:38:56.881Z,14.1
2018-08-12T00:39:46.699Z,14.1
2018-08-12T00:40:36.753Z,14.1
2018-08-12T00:41:26.792Z,14.2
2018-08-12T00:42:17.135Z,14.2
2018-08-12T00:43:07.220Z,14.2
2018-08-12T00:43:57.297Z,14.2
2018-08-12T00:44:46.182Z,14.1
2018-08-12T00:45:37.407Z,14.1
2018-08-12T00:46:27.455Z,14.1
2018-08-12T00:47:17.235Z,14
2018-08-12T00:48:07.405Z,14.1
2018-08-12T00:48:57.365Z,13.9
2018-08-12T00:49:47.162Z,13.8
2018-08-12T00:50:37.775Z,13.8
2018-08-12T00:51:27.845Z,13.6
2018-08-12T00:52:18.027Z,13.5
2018-08-12T00:53:08.017Z,13.4
2018-08-12T00:53:57.767Z,13.3
2018-08-12T00:54:48.085Z,13.2
2018-08-12T00:55:38.152Z,13.2
2018-08-12T00:56:28.240Z,13.1
2018-08-12T00:57:18.015Z,13.1
2018-08-12T00:58:08.349Z,13.1
2018-08-12T00:58:58.134Z,13.1
2018-08-12T00:59:48.205Z,13.1
2018-08-12T01:00:38.256Z,13.1
2018-08-12T01:01:28.315Z,13.1
2018-08-12T01:02:18.422Z,13.1
2018-08-12T01:03:08.454Z,13.1
2018-08-12T01:03:58.498Z,13.1
2018-08-12T01:04:48.581Z,13.1
2018-08-12T01:05:38.665Z,13.1
2018-08-12T01:06:28.420Z,13.2
2018-08-12T01:07:18.778Z,13.2
2018-08-12T01:08:09.111Z,13.2
2018-08-12T01:08:59.170Z,13.2
2018-08-12T01:09:48.985Z,13.2
2018-08-12T01:10:39.035Z,13.2
2018-08-12T01:11:29.400Z,13.1
2018-08-12T01:12:18.864Z,13.2
2018-08-12T01:13:09.511Z,13.1
2018-08-12T01:13:59.290Z,13.2
2018-08-12T01:14:49.387Z,13.2
2018-08-12T01:15:39.134Z,13.1
2018-08-12T01:16:29.732Z,13.1
2018-08-12T01:17:19.519Z,13.1
2018-08-12T01:18:09.875Z,13.1
2018-08-12T01:18:59.654Z,13.2
2018-08-12T01:19:50.021Z,13.3
2018-08-12T01:20:40.086Z,13.3
2018-08-12T01:21:29.870Z,13.3
2018-08-12T01:22:20.203Z,13.3
2018-08-12T01:23:10.086Z,13.3
2018-08-12T01:24:00.323Z,13.3
2018-08-12T01:24:50.417Z,13.3
2018-08-12T01:25:39.897Z,13.3
2018-08-12T01:26:30.246Z,13.3
2018-08-12T01:27:20.361Z,13.3
2018-08-12T01:28:10.365Z,13.3
2018-08-12T01:29:00.745Z,13.3
2018-08-12T01:29:50.786Z,13.3
2018-08-12T01:30:40.868Z,13.3
2018-08-12T01:31:30.927Z,13.3
2018-08-12T01:32:20.703Z,13.3
2018-08-12T01:33:11.039Z,13.3
2018-08-12T01:34:00.824Z,13.2
2018-08-12T01:34:50.892Z,13.2
2018-08-12T01:35:41.242Z,13.3
2018-08-12T01:36:31.020Z,13.3
2018-08-12T01:37:21.103Z,13.3
2018-08-12T01:38:11.434Z,13.2
2018-08-12T01:39:00.930Z,13.3
2018-08-12T01:39:51.265Z,13.3
2018-08-12T01:40:41.319Z,13.3
2018-08-12T01:41:31.409Z,13.2
2018-08-12T01:42:21.452Z,13.3
2018-08-12T01:43:11.521Z,13.3
2018-08-12T01:44:01.605Z,13.2
2018-08-12T01:44:51.917Z,13.3
2018-08-12T01:45:41.459Z,13.3
2018-08-12T01:46:31.496Z,13.2
2018-08-12T01:47:21.559Z,13.2
2018-08-12T01:48:12.202Z,13.2
2018-08-12T01:49:01.779Z,13.2
2018-08-12T01:49:52.024Z,13.2
2018-08-12T01:50:42.071Z,13.3
2018-08-12T01:51:32.437Z,13.3
2018-08-12T01:52:22.504Z,13.3
2018-08-12T01:53:12.297Z,13.3
2018-08-12T01:54:02.370Z,13.3
2018-08-12T01:54:52.443Z,13.2
2018-08-12T01:55:42.488Z,13.1
2018-08-12T01:56:32.649Z,13.1
2018-08-12T01:57:22.613Z,13.2
2018-08-12T01:58:12.963Z,13.2
2018-08-12T01:59:02.739Z,13.1
2018-08-12T01:59:52.532Z,13.1
2018-08-12T02:00:42.874Z,13.1
2018-08-12T02:01:33.215Z,13.1
2018-08-12T02:02:22.985Z,13.1
2018-08-12T02:03:13.341Z,13.1
2018-08-12T02:04:02.847Z,13.1
2018-08-12T02:04:53.178Z,13.1
2018-08-12T02:05:43.549Z,13.1
2018-08-12T02:06:33.354Z,13.2
2018-08-12T02:07:23.391Z,13.2
2018-08-12T02:08:13.729Z,13.2
2018-08-12T02:09:03.228Z,13.1
2018-08-12T02:09:53.589Z,13.1
2018-08-12T02:10:43.644Z,13
2018-08-12T02:11:33.423Z,13.1
2018-08-12T02:12:23.795Z,13.1
2018-08-12T02:13:13.824Z,13.1
2018-08-12T02:14:04.186Z,13.1
2018-08-12T02:14:53.717Z,13.1
2018-08-12T02:15:44.040Z,13.1
2018-08-12T02:16:34.359Z,13.1
2018-08-12T02:17:24.147Z,13.1
2018-08-12T02:18:13.923Z,13
2018-08-12T02:19:04.279Z,12.9
2018-08-12T02:19:54.630Z,12.9
2018-08-12T02:20:44.716Z,12.9
2018-08-12T02:21:33.615Z,12.9
2018-08-12T02:22:24.522Z,12.9
2018-08-12T02:23:14.032Z,13
2018-08-12T02:24:04.956Z,13
2018-08-12T02:24:55.082Z,13
2018-08-12T02:25:45.092Z,12.9
2018-08-12T02:26:34.905Z,13
2018-08-12T02:27:24.958Z,13
2018-08-12T02:28:14.996Z,13.1
2018-08-12T02:29:05.043Z,13.1
2018-08-12T02:29:55.385Z,13
2018-08-12T02:30:45.466Z,13
2018-08-12T02:31:35.513Z,13
2018-08-12T02:32:25.607Z,13
2018-08-12T02:33:15.383Z,12.9
2018-08-12T02:34:05.466Z,12.9
2018-08-12T02:34:55.501Z,12.9
2018-08-12T02:35:45.544Z,12.9
2018-08-12T02:36:35.655Z,12.9
2018-08-12T02:37:25.414Z,12.9
2018-08-12T02:38:16.046Z,12.9
2018-08-12T02:39:05.833Z,12.9
2018-08-12T02:39:56.170Z,12.9
2018-08-12T02:40:45.967Z,12.9
2018-08-12T02:41:36.044Z,12.9
2018-08-12T02:42:26.083Z,12.9
2018-08-12T02:43:16.403Z,13
2018-08-12T02:44:06.486Z,13
2018-08-12T02:44:56.569Z,13.1
2018-08-12T02:45:46.768Z,13.1
2018-08-12T02:46:36.671Z,13.1
2018-08-12T02:47:26.744Z,13.1
2018-08-12T02:48:16.555Z,13.1
2018-08-12T02:49:06.598Z,13.1
2018-08-12T02:49:57.043Z,13.1
2018-08-12T02:50:46.427Z,13.1
2018-08-12T02:51:36.789Z,13.1
2018-08-12T02:52:26.827Z,13.2
2018-08-12T02:53:16.614Z,13.2
2018-08-12T02:54:07.263Z,13.1
2018-08-12T02:54:57.332Z,13.1
2018-08-12T02:55:47.096Z,13.1
2018-08-12T02:56:37.450Z,13.1
2018-08-12T02:57:27.495Z,13.2
2018-08-12T02:58:17.575Z,13.1
2018-08-12T02:59:06.779Z,13.1
2018-08-12T02:59:57.420Z,13.1
2018-08-12T03:00:47.764Z,13.2
2018-08-12T03:01:37.809Z,13.1
2018-08-12T03:02:27.310Z,13.1
2018-08-12T03:03:17.652Z,13.1
2018-08-12T03:04:07.720Z,13.1
2018-08-12T03:04:58.053Z,13.1
2018-08-12T03:05:47.872Z,13.2
2018-08-12T03:06:38.206Z,13.2
2018-08-12T03:07:27.962Z,13.2
2018-08-12T03:08:18.326Z,13.2
2018-08-12T03:09:08.409Z,13.2
2018-08-12T03:09:58.476Z,13.2
2018-08-12T03:10:48.527Z,13.2
2018-08-12T03:11:37.714Z,13.2
2018-08-12T03:12:28.659Z,13.2
2018-08-12T03:13:18.741Z,13.2
2018-08-12T03:14:08.508Z,13.2
2018-08-12T03:14:58.854Z,13.2
2018-08-12T03:15:48.937Z,13.2
2018-08-12T03:16:38.689Z,13.2
2018-08-12T03:17:29.020Z,13.2
2018-08-12T03:18:19.139Z,13.2
2018-08-12T03:19:09.183Z,13.3
2018-08-12T03:19:58.166Z,13.2
2018-08-12T03:20:48.988Z,13.2
2018-08-12T03:21:38.786Z,13.2
2018-08-12T03:22:30.100Z,13.2
2018-08-12T03:23:19.499Z,13.2
2018-08-12T03:24:09.278Z,13.3
2018-08-12T03:24:59.041Z,13.3
2018-08-12T03:25:49.449Z,13.3
2018-08-12T03:26:39.162Z,13.3
2018-08-12T03:27:29.826Z,13.3
2018-08-12T03:28:19.574Z,13.3
2018-08-12T03:29:09.376Z,13.3
2018-08-12T03:30:00.602Z,13.3
2018-08-12T03:30:50.046Z,13.3
2018-08-12T03:31:39.553Z,13.3
2018-08-12T03:32:29.611Z,13.3
2018-08-12T03:33:19.980Z,13.3
2018-08-12T03:34:10.333Z,13.3
2018-08-12T03:35:00.384Z,13.3
2018-08-12T03:35:50.163Z,13.3
2018-08-12T03:36:40.526Z,13.3
2018-08-12T03:37:30.595Z,13.3
2018-08-12T03:38:20.345Z,13.3
2018-08-12T03:39:10.158Z,13.3
2018-08-12T03:40:00.729Z,13.4
2018-08-12T03:40:50.804Z,13.4
2018-08-12T03:41:40.877Z,13.5
2018-08-12T03:42:30.956Z,13.5
2018-08-12T03:43:20.430Z,13.4
2018-08-12T03:44:11.084Z,13.5
2018-08-12T03:45:00.922Z,13.5
2018-08-12T03:45:50.922Z,13.5
2018-08-12T03:46:41.333Z,13.4
2018-08-12T03:47:31.342Z,13.4
2018-08-12T03:48:21.113Z,13.5
2018-08-12T03:49:11.195Z,13.4
2018-08-12T03:50:01.257Z,13.4
2018-08-12T03:50:51.609Z,13.4
2018-08-12T03:51:41.357Z,13.4
2018-08-12T03:52:31.696Z,13.4
2018-08-12T03:53:21.784Z,13.4
2018-08-12T03:54:11.841Z,13.4
2018-08-12T03:55:01.926Z,13.4
2018-08-12T03:55:51.681Z,13.4
2018-08-12T03:56:42.040Z,13.4
2018-08-12T03:57:32.095Z,13.4
2018-08-12T03:58:21.306Z,13.4
2018-08-12T03:59:12.262Z,13.4
2018-08-12T04:00:02.073Z,13.4
2018-08-12T04:00:52.343Z,13.4
2018-08-12T04:01:42.149Z,13.5
2018-08-12T04:02:32.194Z,13.5
2018-08-12T04:03:22.521Z,13.5
2018-08-12T04:04:11.766Z,13.6
2018-08-12T04:05:02.675Z,13.6
2018-08-12T04:05:52.439Z,13.6
2018-08-12T04:06:42.810Z,13.5
2018-08-12T04:07:32.283Z,13.5
2018-08-12T04:08:22.918Z,13.5
2018-08-12T04:09:12.714Z,13.4
2018-08-12T04:10:03.073Z,13.4
2018-08-12T04:10:52.799Z,13.4
2018-08-12T04:11:43.171Z,13.4
2018-08-12T04:12:33.232Z,13.4
2018-08-12T04:13:23.031Z,13.4
2018-08-12T04:14:13.349Z,13.4
2018-08-12T04:15:03.439Z,13.4
2018-08-12T04:15:53.481Z,13.4
2018-08-12T04:16:43.011Z,13.4
2018-08-12T04:17:33.344Z,13.5
2018-08-12T04:18:23.385Z,13.5
2018-08-12T04:19:13.746Z,13.6
2018-08-12T04:20:03.270Z,13.6
2018-08-12T04:20:53.883Z,13.6
2018-08-12T04:21:43.974Z,13.6
2018-08-12T04:22:34.018Z,13.6
2018-08-12T04:23:24.081Z,13.6
2018-08-12T04:24:14.142Z,13.7
2018-08-12T04:25:04.203Z,13.7
2018-08-12T04:25:54.280Z,13.8
2018-08-12T04:26:44.330Z,13.8
2018-08-12T04:27:34.383Z,13.8
2018-08-12T04:28:24.183Z,13.8
2018-08-12T04:29:14.517Z,13.8
2018-08-12T04:30:04.608Z,13.9
2018-08-12T04:30:54.385Z,13.9
2018-08-12T04:31:44.747Z,14
2018-08-12T04:32:34.204Z,14
2018-08-12T04:33:24.837Z,14.1
2018-08-12T04:34:14.901Z,14.1
2018-08-12T04:35:04.967Z,14.1
2018-08-12T04:35:54.747Z,14.1
2018-08-12T04:36:45.106Z,14.1
2018-08-12T04:37:34.925Z,14.1
2018-08-12T04:38:24.944Z,14.1
2018-08-12T04:39:15.302Z,14.2
2018-08-12T04:40:04.774Z,14.3
2018-08-12T04:40:55.144Z,14.3
2018-08-12T04:41:44.912Z,14.3
2018-08-12T04:42:35.019Z,14.3
2018-08-12T04:43:25.339Z,14.4
2018-08-12T04:44:15.092Z,14.4
2018-08-12T04:45:05.756Z,14.5
2018-08-12T04:45:56.127Z,14.6
2018-08-12T04:46:45.316Z,14.6
2018-08-12T04:47:35.918Z,14.6
2018-08-12T04:48:25.724Z,14.7
2018-08-12T05:06:40.455Z,15.7
2018-08-12T05:07:30.022Z,15.7
2018-08-12T05:08:20.000Z,15.8
2018-08-12T05:09:10.631Z,15.8
2018-08-12T05:10:00.705Z,15.8
2018-08-12T05:10:50.769Z,15.9
2018-08-12T05:11:40.835Z,15.9
2018-08-12T05:12:30.883Z,15.9
2018-08-12T05:13:20.937Z,16
2018-08-12T05:14:11.035Z,16.1
2018-08-12T05:15:00.501Z,16.1
2018-08-12T05:15:51.127Z,16.2
2018-08-12T05:16:40.343Z,16.3
2018-08-12T05:17:30.976Z,16.3
2018-08-12T05:18:21.036Z,16.3
2018-08-12T05:19:11.445Z,16.3
2018-08-12T05:20:00.907Z,16.4
2018-08-12T05:20:50.658Z,16.6
2018-08-12T05:21:41.594Z,16.7
2018-08-12T05:22:31.622Z,16.6
2018-08-12T05:23:21.764Z,16.8
2018-08-12T05:24:11.204Z,16.9
2018-08-12T05:25:01.852Z,17.1
2018-08-12T05:25:51.619Z,17.1
2018-08-12T05:26:41.947Z,17.1
2018-08-12T05:27:31.517Z,17.1
2018-08-12T05:28:21.628Z,17.1
2018-08-12T05:29:12.158Z,17.3
2018-08-12T05:30:02.238Z,17.3
2018-08-12T05:30:51.994Z,17.3
2018-08-12T05:31:42.055Z,17.3
2018-08-12T05:32:31.550Z,17.5
2018-08-12T05:33:21.909Z,17.6
2018-08-12T05:34:12.515Z,17.6
2018-08-12T05:35:02.340Z,17.8
2018-08-12T05:35:52.385Z,18
2018-08-12T05:36:42.754Z,18.2
2018-08-12T05:37:32.574Z,18.4
2018-08-12T05:38:22.837Z,18.4
2018-08-12T05:39:12.433Z,18.4
2018-08-12T05:40:02.695Z,18.3
2018-08-12T05:40:53.064Z,18.4
2018-08-12T05:41:42.835Z,18.4
2018-08-12T05:42:32.871Z,18.2
2018-08-12T05:43:22.939Z,18.1
2018-08-12T05:44:13.299Z,18.3
2018-08-12T05:45:02.875Z,18.3
2018-08-12T05:45:53.404Z,18.2
2018-08-12T05:46:43.204Z,18.1
2018-08-12T05:47:33.270Z,18.3
2018-08-12T05:48:23.134Z,18.4
2018-08-12T05:49:13.385Z,18.4
2018-08-12T05:50:03.466Z,18.4
2018-08-12T05:50:53.534Z,18.5
2018-08-12T05:51:43.892Z,18.6
2018-08-12T05:52:33.945Z,18.6
2018-08-12T05:53:23.816Z,18.8
2018-08-12T05:54:13.779Z,18.9
2018-08-12T05:55:04.144Z,19.1
2018-08-12T05:55:54.186Z,19.3
2018-08-12T05:56:44.245Z,19.3
2018-08-12T05:57:34.334Z,19.4
2018-08-12T05:58:23.908Z,19.3
2018-08-12T05:59:13.594Z,19.1
2018-08-12T06:00:04.551Z,19.2
2018-08-12T06:00:54.302Z,19.3
2018-08-12T06:01:44.637Z,19.4
2018-08-12T06:02:34.996Z,19.4
2018-08-12T06:03:24.765Z,19.1
2018-08-12T06:04:14.823Z,19.1
2018-08-12T06:05:04.630Z,19.2
2018-08-12T06:05:54.670Z,19.3
2018-08-12T06:06:44.743Z,19.6
2018-08-12T06:07:35.112Z,19.6
2018-08-12T06:08:24.903Z,19.6
2018-08-12T06:09:14.928Z,19.7
2018-08-12T06:10:05.279Z,19.9
2018-08-12T06:10:55.056Z,20.1
2018-08-12T06:11:45.414Z,20.3
2018-08-12T06:12:35.468Z,20.5
2018-08-12T06:13:25.534Z,20.8
2018-08-12T06:14:15.596Z,20.6
2018-08-12T06:15:05.392Z,20.6
2018-08-12T06:15:55.498Z,20.4
2018-08-12T06:16:45.779Z,20.6
2018-08-12T06:17:36.444Z,20.6
2018-08-12T06:18:25.931Z,20.9
2018-08-12T06:19:15.980Z,20.8
2018-08-12T06:20:05.775Z,20.9
2018-08-12T06:20:55.542Z,20.8
2018-08-12T06:21:45.903Z,21
2018-08-12T06:22:35.944Z,21.1
2018-08-12T06:23:26.012Z,20.9
2018-08-12T06:24:16.365Z,20.7
2018-08-12T06:25:06.150Z,20.8
2018-08-12T06:25:56.515Z,20.6
2018-08-12T06:26:46.536Z,20.4
2018-08-12T06:27:36.352Z,20.3
2018-08-12T06:28:26.400Z,20.4
2018-08-12T06:29:16.182Z,20.7
2018-08-12T06:30:06.816Z,20.6
2018-08-12T06:30:56.910Z,20.7
2018-08-12T06:31:46.700Z,20.8
2018-08-12T06:32:37.101Z,20.9
2018-08-12T06:33:26.523Z,21
2018-08-12T06:34:17.075Z,20.8
2018-08-12T06:35:06.953Z,20.8
2018-08-12T06:36:47.062Z,21.2
2018-08-12T06:37:37.121Z,21.4
2018-08-12T06:38:27.176Z,21.6
2018-08-12T06:39:17.522Z,21.9
2018-08-12T06:40:07.323Z,21.9
2018-08-12T06:40:57.359Z,21.9
2018-08-12T06:41:47.730Z,21.8
2018-08-12T06:42:37.309Z,22
2018-08-12T06:43:27.839Z,21.9
2018-08-12T06:44:17.438Z,22.2
2018-08-12T06:45:07.966Z,22.3
2018-08-12T06:45:57.489Z,22
2018-08-12T06:46:48.090Z,21.9
2018-08-12T06:47:37.864Z,22.2
2018-08-12T06:48:27.954Z,22.6
2018-08-12T06:49:18.276Z,22.8
2018-08-12T06:50:07.793Z,22.9
2018-08-12T06:50:57.874Z,22.9
2018-08-12T06:51:49.022Z,23
2018-08-12T06:52:38.262Z,22.9
2018-08-12T06:53:28.645Z,23.1
2018-08-12T06:54:18.400Z,23.2
2018-08-12T06:55:08.746Z,23.1
2018-08-12T06:55:58.044Z,22.9
2018-08-12T06:56:48.868Z,23.2
2018-08-12T06:57:38.646Z,23.1
2018-08-12T06:58:28.998Z,23.3
2018-08-12T06:59:18.803Z,23.3
2018-08-12T07:00:08.830Z,22.9
2018-08-12T07:00:59.172Z,23
2018-08-12T07:01:49.247Z,22.8
2018-08-12T07:02:39.364Z,22.9
2018-08-12T07:03:29.365Z,23.3
2018-08-12T07:04:19.188Z,23.4
2018-08-12T07:05:09.522Z,23.4
2018-08-12T07:05:59.584Z,23.4
2018-08-12T07:06:49.371Z,22.9
2018-08-12T07:07:39.953Z,22.3
2018-08-12T07:08:29.191Z,22.1
2018-08-12T07:09:19.880Z,22.4
2018-08-12T07:10:09.892Z,22.7
2018-08-12T07:10:59.967Z,22.9
2018-08-12T07:11:49.461Z,23.4
2018-08-12T07:12:39.518Z,23.8
2018-08-12T07:13:29.287Z,23.5
2018-08-12T07:14:19.214Z,23.4
2018-08-12T07:15:09.720Z,23.6
2018-08-12T07:16:00.353Z,23.9
2018-08-12T07:16:50.124Z,23.8
2018-08-12T07:17:40.207Z,24.1
2018-08-12T07:18:30.507Z,24
2018-08-12T07:19:20.609Z,24.2
2018-08-12T07:20:10.686Z,24.3
2018-08-12T07:21:00.435Z,24.2
2018-08-12T07:21:50.796Z,23.9
2018-08-12T07:22:40.571Z,24
2018-08-12T07:23:30.148Z,24.1
2018-08-12T07:24:20.971Z,24.1
2018-08-12T07:25:11.041Z,24.1
2018-08-12T07:26:00.850Z,24
2018-08-12T07:26:50.894Z,23.6
2018-08-12T07:27:40.685Z,23
2018-08-12T07:28:31.329Z,23
2018-08-12T07:29:21.417Z,23.4
2018-08-12T07:30:11.411Z,23.8
2018-08-12T07:31:01.233Z,24.3
2018-08-12T07:31:51.565Z,24.3
2018-08-12T07:32:41.744Z,24.4
2018-08-12T07:33:31.714Z,24.8
2018-08-12T07:34:21.763Z,25.4
2018-08-12T07:35:11.818Z,25.6
2018-08-12T07:36:01.888Z,25.9
2018-08-12T07:36:51.652Z,25.9
2018-08-12T07:37:41.998Z,25.9
2018-08-12T07:38:32.190Z,25.9
2018-08-12T07:39:22.150Z,25.6
2018-08-12T07:40:11.970Z,25.6
2018-08-12T07:41:02.265Z,25.6
2018-08-12T07:41:52.047Z,25.8
2018-08-12T07:42:42.149Z,25.8
2018-08-12T07:43:31.605Z,25.2
2018-08-12T07:44:22.232Z,25.4
2018-08-12T07:45:12.295Z,25.6
2018-08-12T07:46:02.376Z,25.4
2018-08-12T07:46:52.150Z,25.4
2018-08-12T07:47:42.199Z,25.6
2018-08-12T07:48:32.855Z,25.6
2018-08-12T07:49:22.373Z,25.4
2018-08-12T07:50:13.016Z,25.3
2018-08-12T07:51:02.571Z,24.8
2018-08-12T07:51:53.097Z,24.3
2018-08-12T07:52:42.935Z,24.2
2018-08-12T07:53:33.250Z,23.9
2018-08-12T07:54:23.301Z,23.9
2018-08-12T07:55:13.380Z,23.7
2018-08-12T07:56:03.434Z,23.4
2018-08-12T07:56:53.217Z,23.6
2018-08-12T07:57:43.559Z,23.6
2018-08-12T07:58:33.348Z,23.5
2018-08-12T07:59:23.710Z,23.6
2018-08-12T08:00:13.478Z,23.6
2018-08-12T08:01:03.809Z,23.9
2018-08-12T08:01:53.866Z,23.5
2018-08-12T08:02:43.932Z,23.8
2018-08-12T08:03:33.986Z,24.1
2018-08-12T08:04:23.783Z,24.7
2018-08-12T08:05:14.123Z,24.9
2018-08-12T08:06:04.226Z,24.8
2018-08-12T08:06:53.976Z,24.8
2018-08-12T08:07:44.327Z,24.9
2018-08-12T08:08:34.111Z,24.8
2018-08-12T08:09:24.453Z,24.9
2018-08-12T08:10:14.273Z,24.8
2018-08-12T08:11:04.333Z,24.8
2018-08-12T08:11:54.390Z,24.8
2018-08-12T08:12:44.796Z,24.7
2018-08-12T08:13:34.497Z,24.8
2018-08-12T08:14:24.870Z,25.3
2018-08-12T08:15:14.629Z,25.3
2018-08-12T08:16:04.740Z,25.2
2018-08-12T08:16:54.571Z,25.6
2018-08-12T08:17:44.845Z,25.9
2018-08-12T08:18:35.228Z,26.1
2018-08-12T08:19:24.995Z,25.6
2018-08-12T08:20:15.065Z,25.8
2018-08-12T08:21:05.114Z,25.8
2018-08-12T08:21:55.448Z,25.8
2018-08-12T08:22:44.960Z,25.9
2018-08-12T08:23:35.003Z,26.1
2018-08-12T08:24:25.353Z,25.8
2018-08-12T08:25:15.522Z,25.8
2018-08-12T08:26:05.760Z,25.7
2018-08-12T08:26:55.818Z,25.7
2018-08-12T08:27:45.926Z,26.1
2018-08-12T08:28:35.959Z,25.8
2018-08-12T08:29:25.717Z,25.8
2018-08-12T08:30:15.785Z,25.6
2018-08-12T08:31:05.875Z,25.5
2018-08-12T08:31:58.061Z,25.9
2018-08-12T08:32:45.705Z,26.1
2018-08-12T08:33:36.337Z,26.1
2018-08-12T08:34:26.455Z,25.9
2018-08-12T08:35:16.467Z,25.9
2018-08-12T08:36:05.946Z,25.6
2018-08-12T08:36:56.316Z,25.7
2018-08-12T08:37:46.201Z,25.8
2018-08-12T08:38:36.736Z,26
2018-08-12T08:39:26.516Z,26.1
2018-08-12T08:40:16.541Z,26.1
2018-08-12T08:41:06.616Z,26.1
2018-08-12T08:41:56.946Z,25.9
2018-08-12T08:42:46.737Z,25.9
2018-08-12T08:43:36.549Z,25.6
2018-08-12T08:44:27.175Z,25.6
2018-08-12T08:45:17.229Z,26
2018-08-12T08:46:07.318Z,26.3
2018-08-12T08:46:57.072Z,26.1
2018-08-12T08:47:47.416Z,25.7
2018-08-12T08:48:37.520Z,26.1
2018-08-12T08:49:27.543Z,26.3
2018-08-12T08:50:17.319Z,26.4
2018-08-12T08:51:07.118Z,26.5
2018-08-12T08:51:57.489Z,26.7
2018-08-12T08:52:47.533Z,26.9
2018-08-12T08:53:36.723Z,26.9
2018-08-12T08:54:27.675Z,27.1
2018-08-12T08:55:17.132Z,26.6
2018-08-12T08:56:08.640Z,26.9
2018-08-12T08:56:57.655Z,26.9
2018-08-12T08:57:47.946Z,27
2018-08-12T08:58:37.963Z,26.4
2018-08-12T08:59:28.335Z,26.8
2018-08-12T09:00:17.817Z,27.4
2018-08-12T09:01:08.495Z,27.9
2018-08-12T09:01:58.005Z,28.3
2018-08-12T09:02:48.588Z,28.3
2018-08-12T09:03:38.361Z,27.7
2018-08-12T09:04:28.768Z,27.3
2018-08-12T09:20:54.468Z,28.3
2018-08-12T09:21:44.067Z,28.1
2018-08-12T09:22:34.606Z,28.1
2018-08-12T09:23:24.460Z,28.2
2018-08-12T09:24:14.253Z,28.3
2018-08-12T09:25:04.808Z,28.6
2018-08-12T09:25:54.573Z,28.4
2018-08-12T09:26:44.899Z,28.4
2018-08-12T09:27:34.760Z,28.3
2018-08-12T09:28:24.790Z,28.6
2018-08-12T09:29:15.141Z,28.6
2018-08-12T09:30:05.190Z,28.6
2018-08-12T09:30:54.679Z,28.8
2018-08-12T09:31:45.037Z,29.1
2018-08-12T09:32:35.081Z,29.1
2018-08-12T09:33:25.418Z,29.8
2018-08-12T09:34:15.497Z,30.1
2018-08-12T09:35:05.593Z,30
2018-08-12T09:35:55.342Z,29.9
2018-08-12T09:36:45.410Z,29.7
2018-08-12T09:37:35.488Z,29.9
2018-08-12T09:38:25.852Z,30.1
2018-08-12T09:39:15.890Z,29.6
2018-08-12T09:40:05.691Z,29.1
2018-08-12T09:40:56.040Z,29.1
2018-08-12T09:41:45.536Z,29
2018-08-12T09:42:36.165Z,29.3
2018-08-12T09:43:26.243Z,29.5
2018-08-12T09:44:16.320Z,29.6
2018-08-12T09:45:06.091Z,29.7
2018-08-12T09:45:56.432Z,29.6
2018-08-12T09:46:46.212Z,30
2018-08-12T09:47:36.011Z,30.4
2018-08-12T09:48:26.331Z,30.2
2018-08-12T09:49:16.505Z,28.9
2018-08-12T09:50:06.780Z,27.6
2018-08-12T09:50:56.258Z,27.4
2018-08-12T09:51:48.068Z,27.8
2018-08-12T09:52:36.925Z,27.3
2018-08-12T09:54:16.550Z,28.4
2018-08-12T09:55:06.869Z,28.5
2018-08-12T09:55:57.194Z,27.5
2018-08-12T09:56:47.247Z,26.9
2018-08-12T09:57:37.317Z,27.7
2018-08-12T09:58:27.864Z,27.7
2018-08-12T09:59:17.462Z,27.6
2018-08-12T10:00:07.522Z,27.7
2018-08-12T10:00:57.296Z,27.7
2018-08-12T10:01:47.639Z,27.9
2018-08-12T10:02:37.429Z,27.9
2018-08-12T10:03:27.766Z,28.4
2018-08-12T10:04:17.626Z,27.3
2018-08-12T10:05:07.163Z,26.5
2018-08-12T10:05:57.706Z,26.2
2018-08-12T10:06:47.793Z,26.2
2018-08-12T10:07:38.654Z,26.6
2018-08-12T10:08:28.169Z,26.7
2018-08-12T10:09:17.753Z,26.6
2018-08-12T10:10:08.081Z,26.8
2018-08-12T10:10:58.091Z,27.6
2018-08-12T10:11:47.392Z,28
2018-08-12T10:12:38.542Z,28.5
2018-08-12T10:13:28.029Z,28.9
2018-08-12T10:14:18.633Z,28.7
2018-08-12T10:15:08.701Z,28.8
2018-08-12T10:15:58.489Z,29.3
2018-08-12T10:16:47.996Z,29.3
2018-08-12T10:17:38.645Z,29.1
2018-08-12T10:18:28.957Z,28.8
2018-08-12T10:19:19.006Z,28.9
2018-08-12T10:20:09.075Z,29.4
2018-08-12T10:20:58.884Z,29.9
2018-08-12T10:21:49.205Z,29.5
2018-08-12T10:22:39.306Z,29.4
2018-08-12T10:23:29.345Z,29.4
2018-08-12T10:24:19.386Z,28.9
2018-08-12T10:25:08.928Z,28.3
2018-08-12T10:25:58.985Z,28.1
2018-08-12T10:27:39.401Z,28.3
2018-08-12T10:28:28.944Z,28.6
2018-08-12T10:29:20.176Z,28.7
2018-08-12T10:30:09.860Z,29.4
2018-08-12T10:30:59.671Z,29.2
2018-08-12T10:31:49.995Z,29.3
2018-08-12T10:32:40.042Z,29.1
2018-08-12T10:33:29.850Z,28.9
2018-08-12T10:34:20.170Z,28.1
2018-08-12T10:35:10.240Z,27.9
2018-08-12T10:36:00.317Z,28.3
2018-08-12T10:36:50.362Z,28
2018-08-12T10:37:40.186Z,27.9
2018-08-12T10:38:30.494Z,28.2
2018-08-12T10:39:20.558Z,28.9
2018-08-12T10:40:10.076Z,29.3
2018-08-12T10:41:00.674Z,28.4
2018-08-12T10:41:50.794Z,27.9
2018-08-12T10:42:40.831Z,28.3
2018-08-12T10:43:30.354Z,29.1
2018-08-12T10:44:21.620Z,29.6
2018-08-12T10:45:11.082Z,29.6
2018-08-12T10:46:01.091Z,29.7
2018-08-12T10:46:50.894Z,29.4
2018-08-12T10:47:40.951Z,29.3
2018-08-12T10:48:30.749Z,28.4
2018-08-12T10:49:21.388Z,27.8
2018-08-12T10:50:11.167Z,28.4
2018-08-12T10:51:01.679Z,29.6
2018-08-12T10:51:51.581Z,30
2018-08-12T10:52:41.653Z,30.1
2018-08-12T10:53:31.959Z,30.2
2018-08-12T10:54:21.746Z,30.6
2018-08-12T10:55:11.824Z,30.8
2018-08-12T10:56:01.592Z,30.8
2018-08-12T10:56:51.668Z,30.7
2018-08-12T10:57:42.074Z,29.4
2018-08-12T10:58:31.776Z,28.8
2018-08-12T10:59:22.624Z,28.6
2018-08-12T11:00:11.668Z,28.1
2018-08-12T11:01:01.967Z,28.1
2018-08-12T11:01:52.072Z,28.9
2018-08-12T11:02:42.427Z,29.1
2018-08-12T11:03:32.191Z,28.7
2018-08-12T11:04:22.506Z,27.7
2018-08-12T11:05:12.588Z,28.8
2018-08-12T11:06:02.705Z,29.6
2018-08-12T11:06:52.256Z,29.3
2018-08-12T11:07:42.816Z,29.6
2018-08-12T11:08:32.023Z,30.3
2018-08-12T11:09:22.096Z,30.8
2018-08-12T11:10:12.998Z,30.9
2018-08-12T11:11:03.032Z,30.9
2018-08-12T11:11:52.551Z,30.8
2018-08-12T11:12:43.739Z,31.3
2018-08-12T11:13:33.272Z,31.2
2018-08-12T11:14:23.305Z,30.1
2018-08-12T11:15:12.817Z,29.3
2018-08-12T11:16:03.453Z,28.7
2018-08-12T11:16:52.943Z,28.5
2018-08-12T11:17:43.367Z,28.8
2018-08-12T11:18:33.637Z,29
2018-08-12T11:19:23.411Z,29.1
2018-08-12T11:20:13.493Z,29.1
2018-08-12T11:21:03.275Z,29.1
2018-08-12T11:21:53.936Z,28.7
2018-08-12T11:22:43.991Z,28.9
2018-08-12T11:23:34.019Z,29.6
2018-08-12T11:24:23.812Z,29.7
2018-08-12T11:25:14.170Z,29.7
2018-08-12T11:26:03.979Z,29.7
2018-08-12T11:26:54.279Z,29.9
2018-08-12T11:27:44.394Z,29.6
2018-08-12T11:28:34.797Z,29.6
2018-08-12T11:29:24.499Z,29
2018-08-12T11:30:14.544Z,28.7
2018-08-12T11:31:04.701Z,29.4
2018-08-12T11:31:54.113Z,29.4
2018-08-12T11:32:43.926Z,30.2
2018-08-12T11:33:34.799Z,30.4
2018-08-12T11:34:24.859Z,30.3
2018-08-12T11:35:14.926Z,30.1
2018-08-12T11:36:04.741Z,30.6
2018-08-12T11:36:55.085Z,30.8
2018-08-12T11:37:45.183Z,29.8
2018-08-12T11:38:34.908Z,29.6
2018-08-12T11:39:24.984Z,29.5
2018-08-12T11:40:15.350Z,29.6
2018-08-12T11:41:05.214Z,29.3
2018-08-12T11:41:55.459Z,29.2
2018-08-12T11:42:45.553Z,29.4
2018-08-12T11:43:35.568Z,29.6
2018-08-12T11:44:25.108Z,29.8
2018-08-12T11:45:15.727Z,29
2018-08-12T11:46:05.502Z,29.3
2018-08-12T11:46:55.833Z,29
2018-08-12T11:47:45.905Z,28.5
2018-08-12T11:48:35.942Z,28.6
2018-08-12T11:49:25.750Z,28.4
2018-08-12T11:50:15.538Z,28.7
2018-08-12T11:51:06.166Z,28.7
2018-08-12T11:51:56.209Z,28.3
2018-08-12T11:52:45.738Z,28.5
2018-08-12T11:53:36.358Z,28.9
2018-08-12T11:54:26.148Z,29
2018-08-12T11:55:16.215Z,28.3
2018-08-12T11:56:06.290Z,28.5
2018-08-12T11:56:56.913Z,28.9
2018-08-12T11:57:46.154Z,29.4
2018-08-12T11:58:36.502Z,29.9
2018-08-12T11:59:26.564Z,29.9
2018-08-12T12:00:15.770Z,30.2
2018-08-12T12:01:06.961Z,30.4
2018-08-12T12:01:57.007Z,31.1